Furqlus, Syria
Current Conditions -  °F | °C
As of 4:00 PM on Sunday 23 Nov 2014 (Local Time) from OSDI Reporting Station
Moderate Rain Moderate Rain  
Wind Chill: 54°   Ceiling: Unl
Heat Index: 54°   Visibility: 4mi
Dew Point: 48°   Wind: 9mph
Humidity: 82%   Direction: 140°SE
Pressure: 29.97"   Gusts: NA
Location:  34.6°N, 37.08°E
Report Text: OSDI 231300Z 14008KT 6000 RA FEW026TCU SCT030 SCT100 12/09 Q1015
Loading
Personal Weather Stations






























Interactive Weather Map New forecast layout! Learn more

10-Day Weather Forecast

Advertisements
Track Severe Weather on mobile